sensor_id;sensor_type;location;lat;lon;timestamp;pressure;altitude;pressure_sealevel;temperature;humidity
64841;BME280;51307;52.162;7.560;2022-10-22T00:00:53;100464.31;;;11.73;100.00
64841;BME280;51307;52.162;7.560;2022-10-22T00:03:18;100472.81;;;11.75;100.00
64841;BME280;51307;52.162;7.560;2022-10-22T00:05:44;100473.63;;;11.76;100.00
64841;BME280;51307;52.162;7.560;2022-10-22T00:08:09;100481.28;;;11.77;100.00
64841;BME280;51307;52.162;7.560;2022-10-22T00:10:36;100482.81;;;11.80;100.00
64841;BME280;51307;52.162;7.560;2022-10-22T00:13:02;100487.84;;;11.81;100.00
64841;BME280;51307;52.162;7.560;2022-10-22T00:15:28;100485.72;;;11.85;100.00
64841;BME280;51307;52.162;7.560;2022-10-22T00:17:53;100494.88;;;11.89;100.00
64841;BME280;51307;52.162;7.560;2022-10-22T00:20:19;100496.50;;;11.90;100.00
64841;BME280;51307;52.162;7.560;2022-10-22T00:22:44;100494.72;;;11.90;100.00
64841;BME280;51307;52.162;7.560;2022-10-22T00:25:10;100484.25;;;11.90;100.00
64841;BME280;51307;52.162;7.560;2022-10-22T00:27:35;100478.81;;;11.92;100.00
64841;BME280;51307;52.162;7.560;2022-10-22T00:30:01;100484.06;;;11.92;100.00
64841;BME280;51307;52.162;7.560;2022-10-22T00:32:26;100486.53;;;11.93;100.00
64841;BME280;51307;52.162;7.560;2022-10-22T00:34:52;100489.28;;;11.92;100.00
64841;BME280;51307;52.162;7.560;2022-10-22T00:37:17;100489.13;;;11.93;100.00
64841;BME280;51307;52.162;7.560;2022-10-22T00:39:43;100489.78;;;11.96;100.00
64841;BME280;51307;52.162;7.560;2022-10-22T00:42:25;100492.25;;;11.97;100.00
64841;BME280;51307;52.162;7.560;2022-10-22T00:45:19;100487.47;;;12.01;100.00
64841;BME280;51307;52.162;7.560;2022-10-22T00:50:37;100477.81;;;12.01;100.00
64841;BME280;51307;52.162;7.560;2022-10-22T00:53:09;100486.50;;;12.02;100.00
64841;BME280;51307;52.162;7.560;2022-10-22T00:55:38;100492.69;;;12.01;100.00
64841;BME280;51307;52.162;7.560;2022-10-22T00:58:04;100491.88;;;12.00;100.00
64841;BME280;51307;52.162;7.560;2022-10-22T01:00:30;100488.28;;;12.01;100.00
64841;BME280;51307;52.162;7.560;2022-10-22T01:02:57;100489.09;;;12.02;100.00
64841;BME280;51307;52.162;7.560;2022-10-22T01:05:26;100489.91;;;12.02;100.00
64841;BME280;51307;52.162;7.560;2022-10-22T01:07:53;100495.16;;;12.02;100.00
64841;BME280;51307;52.162;7.560;2022-10-22T01:21:52;100489.09;;;12.02;100.00
64841;BME280;51307;52.162;7.560;2022-10-22T01:25:03;100492.53;;;12.02;100.00
64841;BME280;51307;52.162;7.560;2022-10-22T01:30:04;100485.50;;;12.03;100.00
64841;BME280;51307;52.162;7.560;2022-10-22T01:32:38;100494.00;;;12.05;100.00
64841;BME280;51307;52.162;7.560;2022-10-22T01:35:07;100490.56;;;12.04;100.00
64841;BME280;51307;52.162;7.560;2022-10-22T01:37:40;100480.75;;;12.06;100.00
64841;BME280;51307;52.162;7.560;2022-10-22T01:40:09;100484.81;;;12.09;100.00
64841;BME280;51307;52.162;7.560;2022-10-22T01:42:34;100490.88;;;12.09;100.00
64841;BME280;51307;52.162;7.560;2022-10-22T01:45:00;100483.00;;;12.09;100.00
64841;BME280;51307;52.162;7.560;2022-10-22T01:47:40;100482.03;;;12.10;100.00
64841;BME280;51307;52.162;7.560;2022-10-22T01:51:21;100477.78;;;12.09;100.00
64841;BME280;51307;52.162;7.560;2022-10-22T01:53:20;100495.28;;;12.09;100.00
64841;BME280;51307;52.162;7.560;2022-10-22T01:56:20;100490.88;;;12.09;100.00
64841;BME280;51307;52.162;7.560;2022-10-22T02:02:28;100485.97;;;12.06;100.00
64841;BME280;51307;52.162;7.560;2022-10-22T02:07:00;100485.16;;;12.06;100.00
64841;BME280;51307;52.162;7.560;2022-10-22T02:09:28;100488.09;;;12.03;100.00
64841;BME280;51307;52.162;7.560;2022-10-22T02:11:59;100481.41;;;12.00;100.00
64841;BME280;51307;52.162;7.560;2022-10-22T02:14:29;100479.31;;;11.96;100.00
64841;BME280;51307;52.162;7.560;2022-10-22T02:16:57;100485.53;;;11.94;100.00
64841;BME280;51307;52.162;7.560;2022-10-22T02:19:31;100481.44;;;11.92;100.00
64841;BME280;51307;52.162;7.560;2022-10-22T02:22:00;100480.97;;;11.88;100.00
64841;BME280;51307;52.162;7.560;2022-10-22T02:24:26;100476.88;;;11.86;100.00
64841;BME280;51307;52.162;7.560;2022-10-22T02:32:20;100468.56;;;11.74;100.00
64841;BME280;51307;52.162;7.560;2022-10-22T02:34:50;100465.44;;;11.70;100.00
64841;BME280;51307;52.162;7.560;2022-10-22T02:37:17;100477.06;;;11.68;100.00
64841;BME280;51307;52.162;7.560;2022-10-22T02:39:44;100474.63;;;11.66;100.00
64841;BME280;51307;52.162;7.560;2022-10-22T02:42:10;100471.53;;;11.63;100.00
64841;BME280;51307;52.162;7.560;2022-10-22T02:44:37;100479.53;;;11.61;100.00
64841;BME280;51307;52.162;7.560;2022-10-22T02:47:02;100474.66;;;11.58;100.00
64841;BME280;51307;52.162;7.560;2022-10-22T02:49:28;100473.19;;;11.56;100.00
64841;BME280;51307;52.162;7.560;2022-10-22T02:51:54;100470.88;;;11.52;100.00
64841;BME280;51307;52.162;7.560;2022-10-22T02:54:19;100478.94;;;11.51;100.00
64841;BME280;51307;52.162;7.560;2022-10-22T02:56:45;100485.47;;;11.47;100.00
64841;BME280;51307;52.162;7.560;2022-10-22T02:59:10;100485.63;;;11.45;100.00
64841;BME280;51307;52.162;7.560;2022-10-22T03:01:35;100492.81;;;11.43;100.00
64841;BME280;51307;52.162;7.560;2022-10-22T03:04:01;100499.19;;;11.41;100.00
64841;BME280;51307;52.162;7.560;2022-10-22T03:06:26;100495.94;;;11.39;100.00
64841;BME280;51307;52.162;7.560;2022-10-22T03:08:52;100495.28;;;11.37;100.00
64841;BME280;51307;52.162;7.560;2022-10-22T03:11:17;100489.53;;;11.33;100.00
64841;BME280;51307;52.162;7.560;2022-10-22T03:13:43;100486.31;;;11.31;100.00
64841;BME280;51307;52.162;7.560;2022-10-22T03:16:08;100491.03;;;11.27;100.00
64841;BME280;51307;52.162;7.560;2022-10-22T03:18:34;100492.19;;;11.25;100.00
64841;BME280;51307;52.162;7.560;2022-10-22T03:21:14;100491.53;;;11.23;100.00
64841;BME280;51307;52.162;7.560;2022-10-22T03:23:46;100493.66;;;11.19;100.00
64841;BME280;51307;52.162;7.560;2022-10-22T03:26:13;100492.84;;;11.19;100.00
64841;BME280;51307;52.162;7.560;2022-10-22T03:28:40;100496.59;;;11.16;100.00
64841;BME280;51307;52.162;7.560;2022-10-22T03:31:06;100499.72;;;11.11;100.00
64841;BME280;51307;52.162;7.560;2022-10-22T03:33:32;100505.44;;;11.07;100.00
64841;BME280;51307;52.162;7.560;2022-10-22T03:35:59;100500.19;;;11.07;100.00
64841;BME280;51307;52.162;7.560;2022-10-22T03:38:25;100499.53;;;11.05;100.00
64841;BME280;51307;52.162;7.560;2022-10-22T03:40:51;100499.69;;;11.03;100.00
64841;BME280;51307;52.162;7.560;2022-10-22T03:43:17;100490.25;;;11.02;100.00
64841;BME280;51307;52.162;7.560;2022-10-22T03:45:43;100495.94;;;10.98;100.00
64841;BME280;51307;52.162;7.560;2022-10-22T03:48:08;100500.34;;;10.97;100.00
64841;BME280;51307;52.162;7.560;2022-10-22T03:50:34;100504.09;;;10.95;100.00
64841;BME280;51307;52.162;7.560;2022-10-22T03:52:59;100504.25;;;10.93;100.00
64841;BME280;51307;52.162;7.560;2022-10-22T03:55:25;100505.41;;;10.90;100.00
64841;BME280;51307;52.162;7.560;2022-10-22T03:57:50;100497.91;;;10.87;100.00
64841;BME280;51307;52.162;7.560;2022-10-22T04:00:16;100505.06;;;10.85;100.00
64841;BME280;51307;52.162;7.560;2022-10-22T04:02:41;100509.50;;;10.85;100.00
64841;BME280;51307;52.162;7.560;2022-10-22T04:05:07;100502.78;;;10.82;100.00
64841;BME280;51307;52.162;7.560;2022-10-22T04:07:32;100503.91;;;10.80;100.00
64841;BME280;51307;52.162;7.560;2022-10-22T04:09:58;100501.50;;;10.78;100.00
64841;BME280;51307;52.162;7.560;2022-10-22T04:12:23;100506.06;;;10.76;100.00
64841;BME280;51307;52.162;7.560;2022-10-22T04:14:49;100500.16;;;10.74;100.00
64841;BME280;51307;52.162;7.560;2022-10-22T04:17:15;100503.09;;;10.71;100.00
64841;BME280;51307;52.162;7.560;2022-10-22T04:19:40;100506.69;;;10.70;100.00
64841;BME280;51307;52.162;7.560;2022-10-22T04:22:08;100511.25;;;10.68;100.00
64841;BME280;51307;52.162;7.560;2022-10-22T04:24:34;100507.16;;;10.65;100.00
64841;BME280;51307;52.162;7.560;2022-10-22T04:26:59;100512.53;;;10.64;100.00
64841;BME280;51307;52.162;7.560;2022-10-22T04:29:25;100507.47;;;10.62;100.00
64841;BME280;51307;52.162;7.560;2022-10-22T04:31:51;100516.44;;;10.60;100.00
64841;BME280;51307;52.162;7.560;2022-10-22T04:34:16;100520.06;;;10.59;100.00
64841;BME280;51307;52.162;7.560;2022-10-22T04:36:42;100516.13;;;10.55;100.00
64841;BME280;51307;52.162;7.560;2022-10-22T04:39:07;100509.44;;;10.52;100.00
64841;BME280;51307;52.162;7.560;2022-10-22T04:41:37;100510.22;;;10.53;100.00
64841;BME280;51307;52.162;7.560;2022-10-22T04:44:04;100532.25;;;10.50;100.00
64841;BME280;51307;52.162;7.560;2022-10-22T04:46:33;100525.56;;;10.47;100.00
64841;BME280;51307;52.162;7.560;2022-10-22T04:48:59;100523.09;;;10.46;100.00
64841;BME280;51307;52.162;7.560;2022-10-22T04:51:26;100528.31;;;10.46;100.00
64841;BME280;51307;52.162;7.560;2022-10-22T04:53:52;100519.69;;;10.45;100.00
64841;BME280;51307;52.162;7.560;2022-10-22T04:56:27;100521.16;;;10.48;100.00
64841;BME280;51307;52.162;7.560;2022-10-22T05:01:32;100517.22;;;10.44;100.00
64841;BME280;51307;52.162;7.560;2022-10-22T05:04:00;100525.06;;;10.44;100.00
64841;BME280;51307;52.162;7.560;2022-10-22T05:06:28;100520.00;;;10.42;100.00
64841;BME280;51307;52.162;7.560;2022-10-22T05:08:57;100520.16;;;10.41;100.00
64841;BME280;51307;52.162;7.560;2022-10-22T05:11:38;100522.13;;;10.39;100.00
64841;BME280;51307;52.162;7.560;2022-10-22T05:14:06;100520.47;;;10.38;100.00
64841;BME280;51307;52.162;7.560;2022-10-22T05:16:34;100526.78;;;10.35;100.00
64841;BME280;51307;52.162;7.560;2022-10-22T05:19:01;100523.38;;;10.35;100.00
64841;BME280;51307;52.162;7.560;2022-10-22T05:21:27;100531.06;;;10.36;100.00
64841;BME280;51307;52.162;7.560;2022-10-22T05:23:55;100536.28;;;10.36;100.00
64841;BME280;51307;52.162;7.560;2022-10-22T05:26:21;100527.44;;;10.37;100.00
64841;BME280;51307;52.162;7.560;2022-10-22T05:28:49;100532.69;;;10.37;100.00
64841;BME280;51307;52.162;7.560;2022-10-22T05:31:15;100528.28;;;10.38;100.00
64841;BME280;51307;52.162;7.560;2022-10-22T05:33:41;100537.78;;;10.39;100.00
64841;BME280;51307;52.162;7.560;2022-10-22T05:36:12;100533.50;;;10.38;100.00
64841;BME280;51307;52.162;7.560;2022-10-22T05:38:38;100543.81;;;10.39;100.00
64841;BME280;51307;52.162;7.560;2022-10-22T05:41:07;100539.53;;;10.38;100.00
64841;BME280;51307;52.162;7.560;2022-10-22T05:43:33;100534.31;;;10.38;100.00
64841;BME280;51307;52.162;7.560;2022-10-22T05:46:10;100546.56;;;10.38;100.00
64841;BME280;51307;52.162;7.560;2022-10-22T05:48:37;100546.72;;;10.36;100.00
64841;BME280;51307;52.162;7.560;2022-10-22T05:51:05;100540.50;;;10.37;100.00
64841;BME280;51307;52.162;7.560;2022-10-22T05:53:32;100549.47;;;10.35;100.00
64841;BME280;51307;52.162;7.560;2022-10-22T05:56:02;100542.44;;;10.35;100.00
64841;BME280;51307;52.162;7.560;2022-10-22T05:58:28;100550.94;;;10.37;100.00
64841;BME280;51307;52.162;7.560;2022-10-22T06:00:54;100556.31;;;10.36;100.00
64841;BME280;51307;52.162;7.560;2022-10-22T06:03:19;100552.75;;;10.37;100.00
64841;BME280;51307;52.162;7.560;2022-10-22T06:05:45;100559.91;;;10.35;100.00
64841;BME280;51307;52.162;7.560;2022-10-22T06:08:12;100563.47;;;10.34;100.00
64841;BME280;51307;52.162;7.560;2022-10-22T06:10:41;100560.88;;;10.34;100.00
64841;BME280;51307;52.162;7.560;2022-10-22T06:13:08;100559.25;;;10.33;100.00
64841;BME280;51307;52.162;7.560;2022-10-22T06:15:34;100571.50;;;10.32;100.00
64841;BME280;51307;52.162;7.560;2022-10-22T06:17:59;100565.44;;;10.32;100.00
64841;BME280;51307;52.162;7.560;2022-10-22T06:20:25;100576.72;;;10.32;100.00
64841;BME280;51307;52.162;7.560;2022-10-22T06:22:50;100580.13;;;10.33;100.00
64841;BME280;51307;52.162;7.560;2022-10-22T06:25:16;100584.22;;;10.35;100.00
64841;BME280;51307;52.162;7.560;2022-10-22T06:27:41;100585.72;;;10.38;100.00
64841;BME280;51307;52.162;7.560;2022-10-22T06:30:07;100587.38;;;10.39;100.00
64841;BME280;51307;52.162;7.560;2022-10-22T06:32:33;100590.78;;;10.39;100.00
64841;BME280;51307;52.162;7.560;2022-10-22T06:34:58;100590.47;;;10.42;100.00
64841;BME280;51307;52.162;7.560;2022-10-22T06:37:24;100602.56;;;10.43;100.00
64841;BME280;51307;52.162;7.560;2022-10-22T06:39:49;100604.03;;;10.46;100.00
64841;BME280;51307;52.162;7.560;2022-10-22T06:42:15;100607.31;;;10.48;100.00
64841;BME280;51307;52.162;7.560;2022-10-22T06:44:40;100608.78;;;10.51;100.00
64841;BME280;51307;52.162;7.560;2022-10-22T06:47:06;100614.81;;;10.51;100.00
64841;BME280;51307;52.162;7.560;2022-10-22T06:49:31;100620.88;;;10.52;100.00
64841;BME280;51307;52.162;7.560;2022-10-22T06:51:57;100633.75;;;10.53;100.00
64841;BME280;51307;52.162;7.560;2022-10-22T06:54:22;100633.63;;;10.55;100.00
64841;BME280;51307;52.162;7.560;2022-10-22T06:56:48;100639.34;;;10.58;100.00
64841;BME280;51307;52.162;7.560;2022-10-22T06:59:13;100633.00;;;10.61;100.00
64841;BME280;51307;52.162;7.560;2022-10-22T07:01:39;100644.78;;;10.65;100.00
64841;BME280;51307;52.162;7.560;2022-10-22T07:04:05;100648.69;;;10.69;100.00
64841;BME280;51307;52.162;7.560;2022-10-22T07:06:31;100643.81;;;10.74;100.00
64841;BME280;51307;52.162;7.560;2022-10-22T07:08:58;100649.53;;;10.78;100.00
64841;BME280;51307;52.162;7.560;2022-10-22T07:11:27;100646.44;;;10.82;100.00
64841;BME280;51307;52.162;7.560;2022-10-22T07:13:57;100653.84;;;10.87;100.00
64841;BME280;51307;52.162;7.560;2022-10-22T07:16:23;100655.13;;;10.91;100.00
64841;BME280;51307;52.162;7.560;2022-10-22T07:18:49;100652.22;;;10.94;100.00
64841;BME280;51307;52.162;7.560;2022-10-22T07:21:17;100658.75;;;10.98;100.00
64841;BME280;51307;52.162;7.560;2022-10-22T07:23:43;100661.03;;;11.01;100.00
64841;BME280;51307;52.162;7.560;2022-10-22T07:26:12;100659.91;;;11.04;100.00
64841;BME280;51307;52.162;7.560;2022-10-22T07:28:38;100660.41;;;11.07;100.00
64841;BME280;51307;52.162;7.560;2022-10-22T07:31:07;100676.75;;;11.09;100.00
64841;BME280;51307;52.162;7.560;2022-10-22T07:33:33;100673.81;;;11.13;100.00
64841;BME280;51307;52.162;7.560;2022-10-22T07:36:03;100670.91;;;11.16;100.00
64841;BME280;51307;52.162;7.560;2022-10-22T07:38:29;100676.59;;;11.19;100.00
64841;BME280;51307;52.162;7.560;2022-10-22T07:40:56;100674.50;;;11.23;100.00
64841;BME280;51307;52.162;7.560;2022-10-22T07:43:23;100682.81;;;11.26;100.00
64841;BME280;51307;52.162;7.560;2022-10-22T07:45:49;100692.00;;;11.30;100.00
64841;BME280;51307;52.162;7.560;2022-10-22T07:48:15;100691.50;;;11.35;100.00
64841;BME280;51307;52.162;7.560;2022-10-22T07:50:41;100690.41;;;11.38;100.00
64841;BME280;51307;52.162;7.560;2022-10-22T07:53:06;100688.25;;;11.41;100.00
64841;BME280;51307;52.162;7.560;2022-10-22T07:55:33;100695.63;;;11.46;100.00
64841;BME280;51307;52.162;7.560;2022-10-22T07:57:58;100691.84;;;11.48;100.00
64841;BME280;51307;52.162;7.560;2022-10-22T08:00:24;100686.97;;;11.53;100.00
64841;BME280;51307;52.162;7.560;2022-10-22T08:02:50;100696.16;;;11.58;100.00
64841;BME280;51307;52.162;7.560;2022-10-22T08:05:15;100693.03;;;11.62;100.00
64841;BME280;51307;52.162;7.560;2022-10-22T08:07:42;100696.13;;;11.66;100.00
64841;BME280;51307;52.162;7.560;2022-10-22T08:10:08;100695.63;;;11.70;100.00
64841;BME280;51307;52.162;7.560;2022-10-22T08:12:35;100693.53;;;11.74;100.00
64841;BME280;51307;52.162;7.560;2022-10-22T08:15:00;100698.97;;;11.81;100.00
64841;BME280;51307;52.162;7.560;2022-10-22T08:17:27;100700.13;;;11.86;100.00
64841;BME280;51307;52.162;7.560;2022-10-22T08:19:53;100703.22;;;11.90;100.00
64841;BME280;51307;52.162;7.560;2022-10-22T08:22:19;100705.31;;;11.94;100.00
64841;BME280;51307;52.162;7.560;2022-10-22T08:24:44;100714.50;;;11.99;100.00
64841;BME280;51307;52.162;7.560;2022-10-22T08:27:10;100705.50;;;12.01;100.00
64841;BME280;51307;52.162;7.560;2022-10-22T08:29:36;100706.50;;;12.08;100.00
64841;BME280;51307;52.162;7.560;2022-10-22T08:32:02;100702.22;;;12.16;100.00
64841;BME280;51307;52.162;7.560;2022-10-22T08:34:28;100709.41;;;12.22;100.00
64841;BME280;51307;52.162;7.560;2022-10-22T08:36:54;100711.34;;;12.28;100.00
64841;BME280;51307;52.162;7.560;2022-10-22T08:39:20;100716.94;;;12.33;100.00
64841;BME280;51307;52.162;7.560;2022-10-22T08:49:31;100723.78;;;12.50;100.00
64841;BME280;51307;52.162;7.560;2022-10-22T08:51:58;100728.50;;;12.55;100.00
64841;BME280;51307;52.162;7.560;2022-10-22T09:00:13;100730.44;;;12.69;100.00
64841;BME280;51307;52.162;7.560;2022-10-22T09:05:39;100734.19;;;12.83;100.00
64841;BME280;51307;52.162;7.560;2022-10-22T09:08:11;100736.09;;;12.89;100.00
64841;BME280;51307;52.162;7.560;2022-10-22T09:10:47;100743.13;;;12.97;100.00
64841;BME280;51307;52.162;7.560;2022-10-22T09:13:18;100741.63;;;13.03;100.00
64841;BME280;51307;52.162;7.560;2022-10-22T09:15:56;100740.31;;;13.07;100.00
64841;BME280;51307;52.162;7.560;2022-10-22T09:18:34;100747.50;;;13.13;100.00
64841;BME280;51307;52.162;7.560;2022-10-22T09:24:11;100751.06;;;13.20;100.00
64841;BME280;51307;52.162;7.560;2022-10-22T09:26:40;100747.94;;;13.25;100.00
64841;BME280;51307;52.162;7.560;2022-10-22T09:29:15;100754.66;;;13.27;100.00
64841;BME280;51307;52.162;7.560;2022-10-22T09:31:41;100749.88;;;13.31;100.00
64841;BME280;51307;52.162;7.560;2022-10-22T09:34:07;100756.59;;;13.33;100.00
64841;BME280;51307;52.162;7.560;2022-10-22T09:36:34;100762.31;;;13.37;100.00
64841;BME280;51307;52.162;7.560;2022-10-22T09:39:00;100766.56;;;13.38;100.00
64841;BME280;51307;52.162;7.560;2022-10-22T09:41:28;100767.22;;;13.40;100.00
64841;BME280;51307;52.162;7.560;2022-10-22T09:43:57;100771.31;;;13.43;100.00
64841;BME280;51307;52.162;7.560;2022-10-22T09:46:27;100768.69;;;13.43;100.00
64841;BME280;51307;52.162;7.560;2022-10-22T09:54:40;100771.59;;;13.48;100.00
64841;BME280;51307;52.162;7.560;2022-10-22T09:57:19;100778.97;;;13.52;100.00
64841;BME280;51307;52.162;7.560;2022-10-22T09:59:49;100788.44;;;13.53;100.00
64841;BME280;51307;52.162;7.560;2022-10-22T10:02:20;100781.22;;;13.55;100.00
64841;BME280;51307;52.162;7.560;2022-10-22T10:04:52;100786.16;;;13.58;100.00
64841;BME280;51307;52.162;7.560;2022-10-22T10:07:21;100803.19;;;13.63;100.00
64841;BME280;51307;52.162;7.560;2022-10-22T10:09:47;100803.19;;;13.63;100.00
64841;BME280;51307;52.162;7.560;2022-10-22T10:12:25;100802.34;;;13.62;100.00
64841;BME280;51307;52.162;7.560;2022-10-22T10:15:19;100808.88;;;13.66;100.00
64841;BME280;51307;52.162;7.560;2022-10-22T10:18:29;100806.25;;;13.66;100.00
64841;BME280;51307;52.162;7.560;2022-10-22T10:26:33;100823.66;;;13.67;100.00
64841;BME280;51307;52.162;7.560;2022-10-22T10:37:29;100820.31;;;13.73;100.00
64841;BME280;51307;52.162;7.560;2022-10-22T10:54:07;100820.47;;;13.80;100.00
64841;BME280;51307;52.162;7.560;2022-10-22T10:56:56;100829.59;;;13.84;100.00
64841;BME280;51307;52.162;7.560;2022-10-22T10:59:32;100834.03;;;13.84;100.00
64841;BME280;51307;52.162;7.560;2022-10-22T11:08:31;100833.19;;;13.91;100.00
64841;BME280;51307;52.162;7.560;2022-10-22T11:10:47;100835.63;;;13.93;100.00
64841;BME280;51307;52.162;7.560;2022-10-22T11:13:26;100832.66;;;13.96;100.00
64841;BME280;51307;52.162;7.560;2022-10-22T11:16:09;100837.72;;;13.97;100.00
64841;BME280;51307;52.162;7.560;2022-10-22T11:21:42;100841.00;;;13.99;100.00
64841;BME280;51307;52.162;7.560;2022-10-22T11:24:13;100844.47;;;14.00;100.00
64841;BME280;51307;52.162;7.560;2022-10-22T11:29:24;100852.16;;;14.02;100.00
64841;BME280;51307;52.162;7.560;2022-10-22T11:31:54;100842.66;;;14.00;100.00
64841;BME280;51307;52.162;7.560;2022-10-22T11:34:26;100849.34;;;14.03;100.00
64841;BME280;51307;52.162;7.560;2022-10-22T11:36:56;100846.09;;;14.01;100.00
64841;BME280;51307;52.162;7.560;2022-10-22T11:39:44;100850.16;;;14.04;100.00
64841;BME280;51307;52.162;7.560;2022-10-22T11:42:39;100851.97;;;14.03;100.00
64841;BME280;51307;52.162;7.560;2022-10-22T11:48:06;100856.53;;;14.09;100.00
64841;BME280;51307;52.162;7.560;2022-10-22T11:50:50;100849.47;;;14.10;100.00
64841;BME280;51307;52.162;7.560;2022-10-22T12:08:45;100861.59;;;14.11;100.00
64841;BME280;51307;52.162;7.560;2022-10-22T12:21:42;100867.22;;;14.08;100.00
64841;BME280;51307;52.162;7.560;2022-10-22T12:24:13;100867.38;;;14.06;100.00
64841;BME280;51307;52.162;7.560;2022-10-22T12:26:39;100864.31;;;14.03;100.00
64841;BME280;51307;52.162;7.560;2022-10-22T12:29:10;100864.47;;;14.01;100.00
64841;BME280;51307;52.162;7.560;2022-10-22T12:31:38;100870.06;;;13.98;100.00
64841;BME280;51307;52.162;7.560;2022-10-22T12:34:04;100871.06;;;13.97;100.00
64841;BME280;51307;52.162;7.560;2022-10-22T12:36:32;100869.44;;;13.96;100.00
64841;BME280;51307;52.162;7.560;2022-10-22T12:38:59;100868.28;;;13.90;100.00
64841;BME280;51307;52.162;7.560;2022-10-22T12:41:35;100877.69;;;13.85;100.00
64841;BME280;51307;52.162;7.560;2022-10-22T12:44:03;100881.81;;;13.79;100.00
64841;BME280;51307;52.162;7.560;2022-10-22T12:46:32;100877.56;;;13.78;100.00
64841;BME280;51307;52.162;7.560;2022-10-22T12:49:21;100872.47;;;13.76;100.00
64841;BME280;51307;52.162;7.560;2022-10-22T12:51:46;100871.66;;;13.76;100.00
64841;BME280;51307;52.162;7.560;2022-10-22T12:54:25;100866.59;;;13.74;100.00
64841;BME280;51307;52.162;7.560;2022-10-22T12:56:53;100868.03;;;13.77;100.00
64841;BME280;51307;52.162;7.560;2022-10-22T12:59:25;100861.63;;;13.79;100.00
64841;BME280;51307;52.162;7.560;2022-10-22T13:01:54;100860.94;;;13.86;100.00
64841;BME280;51307;52.162;7.560;2022-10-22T13:09:39;100863.50;;;14.02;100.00
64841;BME280;51307;52.162;7.560;2022-10-22T13:12:06;100867.50;;;14.13;100.00
64841;BME280;51307;52.162;7.560;2022-10-22T13:14:35;100860.09;;;14.16;100.00
64841;BME280;51307;52.162;7.560;2022-10-22T13:17:15;100876.50;;;14.18;100.00
64841;BME280;51307;52.162;7.560;2022-10-22T13:19:45;100878.31;;;14.18;100.00
64841;BME280;51307;52.162;7.560;2022-10-22T13:22:34;100873.88;;;14.18;100.00
64841;BME280;51307;52.162;7.560;2022-10-22T13:28:02;100868.94;;;14.24;100.00
64841;BME280;51307;52.162;7.560;2022-10-22T13:30:36;100865.97;;;14.27;100.00
64841;BME280;51307;52.162;7.560;2022-10-22T13:33:27;100869.53;;;14.34;100.00
64841;BME280;51307;52.162;7.560;2022-10-22T13:35:55;100869.16;;;14.37;100.00
64841;BME280;51307;52.162;7.560;2022-10-22T13:38:24;100867.38;;;14.37;100.00
64841;BME280;51307;52.162;7.560;2022-10-22T13:40:50;100872.63;;;14.37;100.00
64841;BME280;51307;52.162;7.560;2022-10-22T13:43:17;100870.63;;;14.39;100.00
64841;BME280;51307;52.162;7.560;2022-10-22T13:45:44;100878.16;;;14.43;100.00
64841;BME280;51307;52.162;7.560;2022-10-22T13:48:15;100884.88;;;14.45;100.00
64841;BME280;51307;52.162;7.560;2022-10-22T13:50:43;100881.44;;;14.45;100.00
64841;BME280;51307;52.162;7.560;2022-10-22T13:53:16;100882.09;;;14.47;100.00
64841;BME280;51307;52.162;7.560;2022-10-22T13:55:42;100888.78;;;14.49;100.00
64841;BME280;51307;52.162;7.560;2022-10-22T13:58:12;100896.50;;;14.51;100.00
64841;BME280;51307;52.162;7.560;2022-10-22T14:00:41;100891.91;;;14.53;100.00
64841;BME280;51307;52.162;7.560;2022-10-22T14:03:12;100898.25;;;14.58;100.00
64841;BME280;51307;52.162;7.560;2022-10-22T14:05:39;100892.63;;;14.61;100.00
64841;BME280;51307;52.162;7.560;2022-10-22T14:08:13;100891.91;;;14.68;100.00
64841;BME280;51307;52.162;7.560;2022-10-22T14:10:39;100898.72;;;14.77;100.00
64841;BME280;51307;52.162;7.560;2022-10-22T14:13:12;100901.84;;;14.80;100.00
64841;BME280;51307;52.162;7.560;2022-10-22T14:15:39;100907.63;;;14.76;100.00
64841;BME280;51307;52.162;7.560;2022-10-22T14:18:06;100900.91;;;14.73;100.00
64841;BME280;51307;52.162;7.560;2022-10-22T14:20:37;100901.91;;;14.72;100.00
64841;BME280;51307;52.162;7.560;2022-10-22T14:23:12;100906.50;;;14.70;100.00
64841;BME280;51307;52.162;7.560;2022-10-22T14:25:39;100903.25;;;14.68;100.00
64841;BME280;51307;52.162;7.560;2022-10-22T14:28:05;100904.41;;;14.66;100.00
64841;BME280;51307;52.162;7.560;2022-10-22T14:30:30;100900.97;;;14.65;100.00
64841;BME280;51307;52.162;7.560;2022-10-22T14:32:57;100907.25;;;14.64;100.00
64841;BME280;51307;52.162;7.560;2022-10-22T14:35:24;100902.97;;;14.63;100.00
64841;BME280;51307;52.162;7.560;2022-10-22T14:37:50;100896.91;;;14.63;100.00
64841;BME280;51307;52.162;7.560;2022-10-22T14:40:18;100906.41;;;14.64;100.00
64841;BME280;51307;52.162;7.560;2022-10-22T14:42:46;100909.88;;;14.64;100.00
64841;BME280;51307;52.162;7.560;2022-10-22T14:45:20;100911.31;;;14.67;100.00
64841;BME280;51307;52.162;7.560;2022-10-22T14:47:47;100912.78;;;14.69;100.00
64841;BME280;51307;52.162;7.560;2022-10-22T14:50:13;100914.88;;;14.74;100.00
64841;BME280;51307;52.162;7.560;2022-10-22T14:52:39;100915.44;;;14.84;100.00
64841;BME280;51307;52.162;7.560;2022-10-22T14:55:08;100918.34;;;14.89;100.00
64841;BME280;51307;52.162;7.560;2022-10-22T14:57:34;100926.34;;;14.96;100.00
64841;BME280;51307;52.162;7.560;2022-10-22T15:00:00;100914.84;;;14.97;100.00
64841;BME280;51307;52.162;7.560;2022-10-22T15:02:26;100928.00;;;14.97;100.00